sensor_id;sensor_type;location;lat;lon;timestamp;temperature;humidity
21259;DHT22;10787;53.364;-1.480;2023-02-04T00:01:36;9.50;99.90
21259;DHT22;10787;53.364;-1.480;2023-02-04T00:04:01;9.50;99.90
21259;DHT22;10787;53.364;-1.480;2023-02-04T00:06:27;9.50;99.90
21259;DHT22;10787;53.364;-1.480;2023-02-04T00:08:53;9.50;99.90
21259;DHT22;10787;53.364;-1.480;2023-02-04T00:11:19;9.50;99.90
21259;DHT22;10787;53.364;-1.480;2023-02-04T00:13:45;9.50;99.90
21259;DHT22;10787;53.364;-1.480;2023-02-04T00:16:11;9.50;99.90
21259;DHT22;10787;53.364;-1.480;2023-02-04T00:18:36;9.40;99.90
21259;DHT22;10787;53.364;-1.480;2023-02-04T00:21:02;9.40;99.90
21259;DHT22;10787;53.364;-1.480;2023-02-04T00:23:28;9.40;99.90
21259;DHT22;10787;53.364;-1.480;2023-02-04T00:25:53;9.40;99.90
21259;DHT22;10787;53.364;-1.480;2023-02-04T00:28:19;9.40;99.90
21259;DHT22;10787;53.364;-1.480;2023-02-04T00:30:45;9.40;99.90
21259;DHT22;10787;53.364;-1.480;2023-02-04T00:33:12;9.40;99.90
21259;DHT22;10787;53.364;-1.480;2023-02-04T00:35:38;9.30;99.90
21259;DHT22;10787;53.364;-1.480;2023-02-04T00:38:05;9.40;99.90
21259;DHT22;10787;53.364;-1.480;2023-02-04T00:40:31;9.30;99.90
21259;DHT22;10787;53.364;-1.480;2023-02-04T00:42:57;9.40;99.90
21259;DHT22;10787;53.364;-1.480;2023-02-04T00:45:23;9.30;99.90
21259;DHT22;10787;53.364;-1.480;2023-02-04T00:47:49;9.30;99.90
21259;DHT22;10787;53.364;-1.480;2023-02-04T00:50:15;9.30;99.90
21259;DHT22;10787;53.364;-1.480;2023-02-04T00:52:41;9.30;99.90
21259;DHT22;10787;53.364;-1.480;2023-02-04T00:55:07;9.30;99.90
21259;DHT22;10787;53.364;-1.480;2023-02-04T00:57:34;9.30;99.90
21259;DHT22;10787;53.364;-1.480;2023-02-04T01:00:00;9.20;99.90
21259;DHT22;10787;53.364;-1.480;2023-02-04T01:02:26;9.20;99.90
21259;DHT22;10787;53.364;-1.480;2023-02-04T01:04:52;9.20;99.90
21259;DHT22;10787;53.364;-1.480;2023-02-04T01:07:17;9.20;99.90
21259;DHT22;10787;53.364;-1.480;2023-02-04T01:09:43;9.20;99.90
21259;DHT22;10787;53.364;-1.480;2023-02-04T01:12:09;9.20;99.90
21259;DHT22;10787;53.364;-1.480;2023-02-04T01:14:35;9.20;99.90
21259;DHT22;10787;53.364;-1.480;2023-02-04T01:17:00;9.20;99.90
21259;DHT22;10787;53.364;-1.480;2023-02-04T01:19:26;9.20;99.90
21259;DHT22;10787;53.364;-1.480;2023-02-04T01:21:52;9.20;99.90
21259;DHT22;10787;53.364;-1.480;2023-02-04T01:24:17;9.20;99.90
21259;DHT22;10787;53.364;-1.480;2023-02-04T01:26:43;9.20;99.90
21259;DHT22;10787;53.364;-1.480;2023-02-04T01:29:09;9.20;99.90
21259;DHT22;10787;53.364;-1.480;2023-02-04T01:31:35;9.20;99.90
21259;DHT22;10787;53.364;-1.480;2023-02-04T01:34:01;9.20;99.90
21259;DHT22;10787;53.364;-1.480;2023-02-04T01:36:27;9.20;99.90
21259;DHT22;10787;53.364;-1.480;2023-02-04T01:38:52;9.30;99.90
21259;DHT22;10787;53.364;-1.480;2023-02-04T01:41:18;9.30;99.90
21259;DHT22;10787;53.364;-1.480;2023-02-04T01:43:46;9.20;99.90
21259;DHT22;10787;53.364;-1.480;2023-02-04T01:46:12;9.20;99.90
21259;DHT22;10787;53.364;-1.480;2023-02-04T01:48:38;9.20;99.90
21259;DHT22;10787;53.364;-1.480;2023-02-04T01:51:07;9.20;99.90
21259;DHT22;10787;53.364;-1.480;2023-02-04T01:53:35;9.20;99.90
21259;DHT22;10787;53.364;-1.480;2023-02-04T01:56:01;9.20;99.90
21259;DHT22;10787;53.364;-1.480;2023-02-04T01:58:36;9.20;99.90
21259;DHT22;10787;53.364;-1.480;2023-02-04T02:01:09;9.30;99.90
21259;DHT22;10787;53.364;-1.480;2023-02-04T02:03:35;9.20;99.90
21259;DHT22;10787;53.364;-1.480;2023-02-04T02:06:01;9.30;99.90
21259;DHT22;10787;53.364;-1.480;2023-02-04T02:08:27;9.30;99.90
21259;DHT22;10787;53.364;-1.480;2023-02-04T02:10:53;9.30;99.90
21259;DHT22;10787;53.364;-1.480;2023-02-04T02:13:18;9.30;99.90
21259;DHT22;10787;53.364;-1.480;2023-02-04T02:15:45;9.30;99.90
21259;DHT22;10787;53.364;-1.480;2023-02-04T02:18:12;9.20;99.90
21259;DHT22;10787;53.364;-1.480;2023-02-04T02:20:38;9.20;99.90
21259;DHT22;10787;53.364;-1.480;2023-02-04T02:25:36;9.20;99.90
21259;DHT22;10787;53.364;-1.480;2023-02-04T02:28:04;9.20;99.90
21259;DHT22;10787;53.364;-1.480;2023-02-04T02:30:30;9.30;99.90
21259;DHT22;10787;53.364;-1.480;2023-02-04T02:32:56;9.30;99.90
21259;DHT22;10787;53.364;-1.480;2023-02-04T02:35:22;9.30;99.90
21259;DHT22;10787;53.364;-1.480;2023-02-04T02:37:48;9.30;99.90
21259;DHT22;10787;53.364;-1.480;2023-02-04T02:40:14;9.30;99.90
21259;DHT22;10787;53.364;-1.480;2023-02-04T02:42:42;9.30;99.90
21259;DHT22;10787;53.364;-1.480;2023-02-04T02:45:22;9.30;99.90
21259;DHT22;10787;53.364;-1.480;2023-02-04T02:47:49;9.30;99.90
21259;DHT22;10787;53.364;-1.480;2023-02-04T02:50:18;9.30;99.90
21259;DHT22;10787;53.364;-1.480;2023-02-04T02:52:44;9.30;99.90
21259;DHT22;10787;53.364;-1.480;2023-02-04T02:55:17;9.30;99.90
21259;DHT22;10787;53.364;-1.480;2023-02-04T02:57:45;9.30;99.90
21259;DHT22;10787;53.364;-1.480;2023-02-04T03:00:18;9.30;99.90
21259;DHT22;10787;53.364;-1.480;2023-02-04T03:02:55;9.30;99.90
21259;DHT22;10787;53.364;-1.480;2023-02-04T03:05:22;9.30;99.90
21259;DHT22;10787;53.364;-1.480;2023-02-04T03:07:49;9.30;99.90
21259;DHT22;10787;53.364;-1.480;2023-02-04T03:10:16;9.30;99.90
21259;DHT22;10787;53.364;-1.480;2023-02-04T03:12:43;9.30;99.90
21259;DHT22;10787;53.364;-1.480;2023-02-04T03:15:10;9.30;99.90
21259;DHT22;10787;53.364;-1.480;2023-02-04T03:17:36;9.40;99.90
21259;DHT22;10787;53.364;-1.480;2023-02-04T03:20:03;9.30;99.90
21259;DHT22;10787;53.364;-1.480;2023-02-04T03:22:29;9.30;99.90
21259;DHT22;10787;53.364;-1.480;2023-02-04T03:24:55;9.40;99.90
21259;DHT22;10787;53.364;-1.480;2023-02-04T03:27:23;9.40;99.90
21259;DHT22;10787;53.364;-1.480;2023-02-04T03:29:49;9.40;99.90
21259;DHT22;10787;53.364;-1.480;2023-02-04T03:32:15;9.40;99.90
21259;DHT22;10787;53.364;-1.480;2023-02-04T03:34:40;9.40;99.90
21259;DHT22;10787;53.364;-1.480;2023-02-04T03:37:07;9.40;99.90
21259;DHT22;10787;53.364;-1.480;2023-02-04T03:39:33;9.40;99.90
21259;DHT22;10787;53.364;-1.480;2023-02-04T03:41:59;9.30;99.90
21259;DHT22;10787;53.364;-1.480;2023-02-04T03:44:25;9.30;99.90
21259;DHT22;10787;53.364;-1.480;2023-02-04T03:46:54;9.30;99.90
21259;DHT22;10787;53.364;-1.480;2023-02-04T03:49:21;9.30;99.90
21259;DHT22;10787;53.364;-1.480;2023-02-04T03:51:47;9.30;99.90
21259;DHT22;10787;53.364;-1.480;2023-02-04T03:54:13;9.30;99.90
21259;DHT22;10787;53.364;-1.480;2023-02-04T03:56:38;9.30;99.90
21259;DHT22;10787;53.364;-1.480;2023-02-04T03:59:04;9.30;99.90
21259;DHT22;10787;53.364;-1.480;2023-02-04T04:01:30;9.30;99.90
21259;DHT22;10787;53.364;-1.480;2023-02-04T04:03:56;9.30;99.90
21259;DHT22;10787;53.364;-1.480;2023-02-04T04:06:22;9.30;99.90
21259;DHT22;10787;53.364;-1.480;2023-02-04T04:08:48;9.30;99.90
21259;DHT22;10787;53.364;-1.480;2023-02-04T04:11:14;9.30;99.90
21259;DHT22;10787;53.364;-1.480;2023-02-04T04:13:39;9.30;99.90
21259;DHT22;10787;53.364;-1.480;2023-02-04T04:16:05;9.30;99.90
21259;DHT22;10787;53.364;-1.480;2023-02-04T04:18:31;9.30;99.90
21259;DHT22;10787;53.364;-1.480;2023-02-04T04:20:58;9.30;99.90
21259;DHT22;10787;53.364;-1.480;2023-02-04T04:23:24;9.30;99.90
21259;DHT22;10787;53.364;-1.480;2023-02-04T04:25:50;9.30;99.90
21259;DHT22;10787;53.364;-1.480;2023-02-04T04:28:16;9.30;99.90
21259;DHT22;10787;53.364;-1.480;2023-02-04T04:30:42;9.30;99.90
21259;DHT22;10787;53.364;-1.480;2023-02-04T04:33:08;9.30;99.90
21259;DHT22;10787;53.364;-1.480;2023-02-04T04:35:34;9.30;99.90
21259;DHT22;10787;53.364;-1.480;2023-02-04T04:38:03;9.30;99.90
21259;DHT22;10787;53.364;-1.480;2023-02-04T04:40:28;9.20;99.90
21259;DHT22;10787;53.364;-1.480;2023-02-04T04:42:54;9.30;99.90
21259;DHT22;10787;53.364;-1.480;2023-02-04T04:45:20;9.30;99.90
21259;DHT22;10787;53.364;-1.480;2023-02-04T04:47:46;9.30;99.90
21259;DHT22;10787;53.364;-1.480;2023-02-04T04:50:12;9.30;99.90
21259;DHT22;10787;53.364;-1.480;2023-02-04T04:52:38;9.30;99.90
21259;DHT22;10787;53.364;-1.480;2023-02-04T04:55:04;9.30;99.90
21259;DHT22;10787;53.364;-1.480;2023-02-04T04:57:30;9.30;99.90
21259;DHT22;10787;53.364;-1.480;2023-02-04T04:59:56;9.30;99.90
21259;DHT22;10787;53.364;-1.480;2023-02-04T05:02:22;9.30;99.90
21259;DHT22;10787;53.364;-1.480;2023-02-04T05:04:47;9.30;99.90
21259;DHT22;10787;53.364;-1.480;2023-02-04T05:07:13;9.30;99.90
21259;DHT22;10787;53.364;-1.480;2023-02-04T05:09:39;9.30;99.90
21259;DHT22;10787;53.364;-1.480;2023-02-04T05:12:05;9.30;99.90
21259;DHT22;10787;53.364;-1.480;2023-02-04T05:14:31;9.30;99.90
21259;DHT22;10787;53.364;-1.480;2023-02-04T05:16:56;9.30;99.90
21259;DHT22;10787;53.364;-1.480;2023-02-04T05:19:22;9.30;99.90
21259;DHT22;10787;53.364;-1.480;2023-02-04T05:21:48;9.30;99.90
21259;DHT22;10787;53.364;-1.480;2023-02-04T05:24:14;9.30;99.90
21259;DHT22;10787;53.364;-1.480;2023-02-04T05:26:39;9.30;99.90
21259;DHT22;10787;53.364;-1.480;2023-02-04T05:29:05;9.40;99.90
21259;DHT22;10787;53.364;-1.480;2023-02-04T05:31:31;9.40;99.90
21259;DHT22;10787;53.364;-1.480;2023-02-04T05:33:57;9.40;99.90
21259;DHT22;10787;53.364;-1.480;2023-02-04T05:36:23;9.40;99.90
21259;DHT22;10787;53.364;-1.480;2023-02-04T05:38:49;9.40;99.90
21259;DHT22;10787;53.364;-1.480;2023-02-04T05:41:14;9.40;99.90
21259;DHT22;10787;53.364;-1.480;2023-02-04T05:43:41;9.40;99.90
21259;DHT22;10787;53.364;-1.480;2023-02-04T05:46:07;9.40;99.90
21259;DHT22;10787;53.364;-1.480;2023-02-04T05:48:33;9.40;99.90
21259;DHT22;10787;53.364;-1.480;2023-02-04T05:50:59;9.40;99.90
21259;DHT22;10787;53.364;-1.480;2023-02-04T05:53:24;9.40;99.90
21259;DHT22;10787;53.364;-1.480;2023-02-04T05:55:50;9.40;99.90
21259;DHT22;10787;53.364;-1.480;2023-02-04T05:58:16;9.40;99.90
21259;DHT22;10787;53.364;-1.480;2023-02-04T06:00:41;9.40;99.90
21259;DHT22;10787;53.364;-1.480;2023-02-04T06:03:07;9.40;99.90
21259;DHT22;10787;53.364;-1.480;2023-02-04T06:05:33;9.40;99.90
21259;DHT22;10787;53.364;-1.480;2023-02-04T06:07:59;9.50;99.90
21259;DHT22;10787;53.364;-1.480;2023-02-04T06:10:24;9.40;99.90
21259;DHT22;10787;53.364;-1.480;2023-02-04T06:12:50;9.40;99.90
21259;DHT22;10787;53.364;-1.480;2023-02-04T06:15:16;9.40;99.90
21259;DHT22;10787;53.364;-1.480;2023-02-04T06:17:42;9.40;99.90
21259;DHT22;10787;53.364;-1.480;2023-02-04T06:20:09;9.40;99.90
21259;DHT22;10787;53.364;-1.480;2023-02-04T06:22:35;9.40;99.90
21259;DHT22;10787;53.364;-1.480;2023-02-04T06:25:01;9.40;99.90
21259;DHT22;10787;53.364;-1.480;2023-02-04T06:27:26;9.40;99.90
21259;DHT22;10787;53.364;-1.480;2023-02-04T06:29:53;9.40;99.90
21259;DHT22;10787;53.364;-1.480;2023-02-04T06:32:19;9.40;99.90
21259;DHT22;10787;53.364;-1.480;2023-02-04T06:34:45;9.40;99.90
21259;DHT22;10787;53.364;-1.480;2023-02-04T06:37:11;9.40;99.90
21259;DHT22;10787;53.364;-1.480;2023-02-04T06:39:40;9.40;99.90
21259;DHT22;10787;53.364;-1.480;2023-02-04T06:42:06;9.40;99.90
21259;DHT22;10787;53.364;-1.480;2023-02-04T06:44:31;9.50;99.90
21259;DHT22;10787;53.364;-1.480;2023-02-04T06:46:57;9.40;99.90
21259;DHT22;10787;53.364;-1.480;2023-02-04T06:49:23;9.40;99.90
21259;DHT22;10787;53.364;-1.480;2023-02-04T06:51:50;9.40;99.90
21259;DHT22;10787;53.364;-1.480;2023-02-04T06:54:15;9.40;99.90
21259;DHT22;10787;53.364;-1.480;2023-02-04T06:56:41;9.40;99.90
21259;DHT22;10787;53.364;-1.480;2023-02-04T06:59:08;9.40;99.90
21259;DHT22;10787;53.364;-1.480;2023-02-04T07:01:34;9.40;99.90
21259;DHT22;10787;53.364;-1.480;2023-02-04T07:04:01;9.40;99.90
21259;DHT22;10787;53.364;-1.480;2023-02-04T07:06:26;9.40;99.90
21259;DHT22;10787;53.364;-1.480;2023-02-04T07:08:52;9.30;99.90
21259;DHT22;10787;53.364;-1.480;2023-02-04T07:11:18;9.30;99.90
21259;DHT22;10787;53.364;-1.480;2023-02-04T07:13:44;9.30;99.90
21259;DHT22;10787;53.364;-1.480;2023-02-04T07:16:09;9.30;99.90
21259;DHT22;10787;53.364;-1.480;2023-02-04T07:18:35;9.30;99.90
21259;DHT22;10787;53.364;-1.480;2023-02-04T07:21:01;9.30;99.90
21259;DHT22;10787;53.364;-1.480;2023-02-04T07:23:27;9.30;99.90
21259;DHT22;10787;53.364;-1.480;2023-02-04T07:25:53;9.30;99.90
21259;DHT22;10787;53.364;-1.480;2023-02-04T07:28:21;9.30;99.90
21259;DHT22;10787;53.364;-1.480;2023-02-04T07:30:47;9.30;99.90
21259;DHT22;10787;53.364;-1.480;2023-02-04T07:33:12;9.30;99.90
21259;DHT22;10787;53.364;-1.480;2023-02-04T07:35:38;9.30;99.90
21259;DHT22;10787;53.364;-1.480;2023-02-04T07:38:04;9.30;99.90
21259;DHT22;10787;53.364;-1.480;2023-02-04T07:40:30;9.30;99.90
21259;DHT22;10787;53.364;-1.480;2023-02-04T07:42:56;9.30;99.90
21259;DHT22;10787;53.364;-1.480;2023-02-04T07:45:21;9.30;99.90
21259;DHT22;10787;53.364;-1.480;2023-02-04T07:47:47;9.30;99.90
21259;DHT22;10787;53.364;-1.480;2023-02-04T07:50:13;9.30;99.90
21259;DHT22;10787;53.364;-1.480;2023-02-04T07:52:39;9.30;99.90
21259;DHT22;10787;53.364;-1.480;2023-02-04T07:55:05;9.20;99.90
21259;DHT22;10787;53.364;-1.480;2023-02-04T07:57:31;9.30;99.90
21259;DHT22;10787;53.364;-1.480;2023-02-04T07:59:57;9.20;99.90
21259;DHT22;10787;53.364;-1.480;2023-02-04T08:02:23;9.20;99.90
21259;DHT22;10787;53.364;-1.480;2023-02-04T08:04:49;9.20;99.90
21259;DHT22;10787;53.364;-1.480;2023-02-04T08:07:15;9.20;99.90
21259;DHT22;10787;53.364;-1.480;2023-02-04T08:09:40;9.30;99.90
21259;DHT22;10787;53.364;-1.480;2023-02-04T08:12:06;9.20;99.90
21259;DHT22;10787;53.364;-1.480;2023-02-04T08:14:32;9.30;99.90
21259;DHT22;10787;53.364;-1.480;2023-02-04T08:16:58;9.20;99.90
21259;DHT22;10787;53.364;-1.480;2023-02-04T08:19:23;9.20;99.90
21259;DHT22;10787;53.364;-1.480;2023-02-04T08:21:49;9.30;99.90
21259;DHT22;10787;53.364;-1.480;2023-02-04T08:24:15;9.30;99.90
21259;DHT22;10787;53.364;-1.480;2023-02-04T08:26:42;9.30;99.90
21259;DHT22;10787;53.364;-1.480;2023-02-04T08:29:08;9.30;99.90
21259;DHT22;10787;53.364;-1.480;2023-02-04T08:31:35;9.30;99.90
21259;DHT22;10787;53.364;-1.480;2023-02-04T08:34:04;9.30;99.90
21259;DHT22;10787;53.364;-1.480;2023-02-04T08:36:30;9.30;99.90
21259;DHT22;10787;53.364;-1.480;2023-02-04T08:38:56;9.30;99.90
21259;DHT22;10787;53.364;-1.480;2023-02-04T08:41:22;9.30;99.90
21259;DHT22;10787;53.364;-1.480;2023-02-04T08:43:48;9.30;99.90
21259;DHT22;10787;53.364;-1.480;2023-02-04T08:46:13;9.30;99.90
21259;DHT22;10787;53.364;-1.480;2023-02-04T08:48:39;9.40;99.90
21259;DHT22;10787;53.364;-1.480;2023-02-04T08:51:05;9.40;99.90
21259;DHT22;10787;53.364;-1.480;2023-02-04T08:53:31;9.30;99.90
21259;DHT22;10787;53.364;-1.480;2023-02-04T08:55:56;9.40;99.90
21259;DHT22;10787;53.364;-1.480;2023-02-04T08:58:22;9.40;99.90
21259;DHT22;10787;53.364;-1.480;2023-02-04T09:00:48;9.40;99.90
21259;DHT22;10787;53.364;-1.480;2023-02-04T09:03:14;9.40;99.90
21259;DHT22;10787;53.364;-1.480;2023-02-04T09:05:39;9.50;99.90
21259;DHT22;10787;53.364;-1.480;2023-02-04T09:08:05;9.40;99.90
21259;DHT22;10787;53.364;-1.480;2023-02-04T09:10:31;9.50;99.90
21259;DHT22;10787;53.364;-1.480;2023-02-04T09:12:56;9.50;99.90
21259;DHT22;10787;53.364;-1.480;2023-02-04T09:15:23;9.50;99.90
21259;DHT22;10787;53.364;-1.480;2023-02-04T09:17:50;9.50;99.90
21259;DHT22;10787;53.364;-1.480;2023-02-04T09:20:16;9.60;99.90
21259;DHT22;10787;53.364;-1.480;2023-02-04T09:22:42;9.50;99.90
21259;DHT22;10787;53.364;-1.480;2023-02-04T09:25:10;9.60;99.90
21259;DHT22;10787;53.364;-1.480;2023-02-04T09:27:36;9.60;99.90
21259;DHT22;10787;53.364;-1.480;2023-02-04T09:30:02;9.60;99.90
21259;DHT22;10787;53.364;-1.480;2023-02-04T09:32:27;9.60;99.90
21259;DHT22;10787;53.364;-1.480;2023-02-04T09:34:53;9.60;99.90
21259;DHT22;10787;53.364;-1.480;2023-02-04T09:37:21;9.60;99.90
21259;DHT22;10787;53.364;-1.480;2023-02-04T09:39:49;9.60;99.90
21259;DHT22;10787;53.364;-1.480;2023-02-04T09:42:15;9.70;99.90
21259;DHT22;10787;53.364;-1.480;2023-02-04T09:44:42;9.70;99.90
21259;DHT22;10787;53.364;-1.480;2023-02-04T09:47:11;9.70;99.90
21259;DHT22;10787;53.364;-1.480;2023-02-04T09:49:37;9.80;99.90
21259;DHT22;10787;53.364;-1.480;2023-02-04T09:52:03;9.80;99.90
21259;DHT22;10787;53.364;-1.480;2023-02-04T09:54:34;9.80;99.90
21259;DHT22;10787;53.364;-1.480;2023-02-04T09:57:00;10.00;99.90
21259;DHT22;10787;53.364;-1.480;2023-02-04T09:59:26;10.00;99.90
21259;DHT22;10787;53.364;-1.480;2023-02-04T10:02:01;10.10;99.90
21259;DHT22;10787;53.364;-1.480;2023-02-04T10:04:27;10.20;99.90
21259;DHT22;10787;53.364;-1.480;2023-02-04T10:06:55;10.20;99.90
21259;DHT22;10787;53.364;-1.480;2023-02-04T10:09:23;10.20;99.90
21259;DHT22;10787;53.364;-1.480;2023-02-04T10:11:49;10.20;99.90
21259;DHT22;10787;53.364;-1.480;2023-02-04T10:14:18;10.20;99.90
21259;DHT22;10787;53.364;-1.480;2023-02-04T10:16:55;10.20;99.90
21259;DHT22;10787;53.364;-1.480;2023-02-04T10:19:22;10.20;99.90
21259;DHT22;10787;53.364;-1.480;2023-02-04T10:21:48;10.20;99.90
21259;DHT22;10787;53.364;-1.480;2023-02-04T10:24:17;10.20;99.90
21259;DHT22;10787;53.364;-1.480;2023-02-04T10:26:44;10.20;99.90
21259;DHT22;10787;53.364;-1.480;2023-02-04T10:29:16;10.20;99.90
21259;DHT22;10787;53.364;-1.480;2023-02-04T10:31:45;10.20;99.90
21259;DHT22;10787;53.364;-1.480;2023-02-04T10:34:16;10.20;99.90
21259;DHT22;10787;53.364;-1.480;2023-02-04T10:36:44;10.20;99.90
21259;DHT22;10787;53.364;-1.480;2023-02-04T10:42:06;10.30;99.90
21259;DHT22;10787;53.364;-1.480;2023-02-04T10:44:33;10.30;99.90
21259;DHT22;10787;53.364;-1.480;2023-02-04T10:47:18;10.30;99.90
21259;DHT22;10787;53.364;-1.480;2023-02-04T10:49:56;10.30;99.90
21259;DHT22;10787;53.364;-1.480;2023-02-04T10:52:37;10.30;99.90
21259;DHT22;10787;53.364;-1.480;2023-02-04T10:55:05;10.30;99.90
21259;DHT22;10787;53.364;-1.480;2023-02-04T10:57:36;10.30;99.90
21259;DHT22;10787;53.364;-1.480;2023-02-04T11:00:05;10.20;99.90
21259;DHT22;10787;53.364;-1.480;2023-02-04T11:02:48;10.30;99.90
21259;DHT22;10787;53.364;-1.480;2023-02-04T11:05:22;10.30;99.90
21259;DHT22;10787;53.364;-1.480;2023-02-04T11:07:49;10.30;99.90
21259;DHT22;10787;53.364;-1.480;2023-02-04T11:10:21;10.30;99.90
21259;DHT22;10787;53.364;-1.480;2023-02-04T11:15:47;10.30;99.90
21259;DHT22;10787;53.364;-1.480;2023-02-04T11:20:47;10.30;99.90
21259;DHT22;10787;53.364;-1.480;2023-02-04T11:25:42;10.40;99.90
21259;DHT22;10787;53.364;-1.480;2023-02-04T11:34:00;10.40;99.90
21259;DHT22;10787;53.364;-1.480;2023-02-04T11:36:27;10.50;99.90
21259;DHT22;10787;53.364;-1.480;2023-02-04T11:38:53;10.50;99.90
21259;DHT22;10787;53.364;-1.480;2023-02-04T11:41:29;10.40;99.90
21259;DHT22;10787;53.364;-1.480;2023-02-04T11:43:56;10.50;99.90
21259;DHT22;10787;53.364;-1.480;2023-02-04T11:46:23;10.50;99.90
21259;DHT22;10787;53.364;-1.480;2023-02-04T11:48:56;10.50;99.90
21259;DHT22;10787;53.364;-1.480;2023-02-04T11:51:29;10.50;99.90
21259;DHT22;10787;53.364;-1.480;2023-02-04T11:53:55;10.50;99.90
21259;DHT22;10787;53.364;-1.480;2023-02-04T11:56:22;10.40;99.90
21259;DHT22;10787;53.364;-1.480;2023-02-04T11:58:49;10.30;99.90
21259;DHT22;10787;53.364;-1.480;2023-02-04T12:01:23;10.40;99.90
21259;DHT22;10787;53.364;-1.480;2023-02-04T12:03:56;10.30;99.90
21259;DHT22;10787;53.364;-1.480;2023-02-04T12:06:33;10.30;99.90
21259;DHT22;10787;53.364;-1.480;2023-02-04T12:11:32;10.40;99.90
21259;DHT22;10787;53.364;-1.480;2023-02-04T12:14:07;10.30;99.90
21259;DHT22;10787;53.364;-1.480;2023-02-04T12:16:49;10.30;99.90
21259;DHT22;10787;53.364;-1.480;2023-02-04T12:19:18;10.20;99.90
21259;DHT22;10787;53.364;-1.480;2023-02-04T12:21:44;10.20;99.90
21259;DHT22;10787;53.364;-1.480;2023-02-04T12:24:10;10.20;99.90
21259;DHT22;10787;53.364;-1.480;2023-02-04T12:26:36;10.20;99.90
21259;DHT22;10787;53.364;-1.480;2023-02-04T12:29:01;10.20;99.90
21259;DHT22;10787;53.364;-1.480;2023-02-04T12:31:30;10.10;99.90
21259;DHT22;10787;53.364;-1.480;2023-02-04T12:33:56;10.10;99.90
21259;DHT22;10787;53.364;-1.480;2023-02-04T12:36:22;10.20;99.90
21259;DHT22;10787;53.364;-1.480;2023-02-04T12:38:49;10.20;99.90
21259;DHT22;10787;53.364;-1.480;2023-02-04T12:41:14;10.30;99.90
21259;DHT22;10787;53.364;-1.480;2023-02-04T12:43:40;10.40;99.90
21259;DHT22;10787;53.364;-1.480;2023-02-04T12:46:06;10.40;99.90
21259;DHT22;10787;53.364;-1.480;2023-02-04T12:48:31;10.40;99.90
21259;DHT22;10787;53.364;-1.480;2023-02-04T12:50:57;10.40;99.90
21259;DHT22;10787;53.364;-1.480;2023-02-04T12:53:23;10.30;99.90
21259;DHT22;10787;53.364;-1.480;2023-02-04T12:55:49;10.20;99.90
21259;DHT22;10787;53.364;-1.480;2023-02-04T12:58:14;10.10;99.90
21259;DHT22;10787;53.364;-1.480;2023-02-04T13:00:41;10.10;99.90
21259;DHT22;10787;53.364;-1.480;2023-02-04T13:03:06;10.10;99.90
21259;DHT22;10787;53.364;-1.480;2023-02-04T13:05:33;10.00;99.90
21259;DHT22;10787;53.364;-1.480;2023-02-04T13:08:00;10.00;99.90
21259;DHT22;10787;53.364;-1.480;2023-02-04T13:10:26;10.10;99.90
21259;DHT22;10787;53.364;-1.480;2023-02-04T13:12:52;10.10;99.90
21259;DHT22;10787;53.364;-1.480;2023-02-04T13:15:18;10.10;99.90
21259;DHT22;10787;53.364;-1.480;2023-02-04T13:17:44;10.10;99.90
21259;DHT22;10787;53.364;-1.480;2023-02-04T13:20:10;10.20;99.90
21259;DHT22;10787;53.364;-1.480;2023-02-04T13:22:37;10.20;99.90
21259;DHT22;10787;53.364;-1.480;2023-02-04T13:25:03;10.30;99.90
21259;DHT22;10787;53.364;-1.480;2023-02-04T13:27:29;10.40;99.90
21259;DHT22;10787;53.364;-1.480;2023-02-04T13:29:56;10.50;99.90
21259;DHT22;10787;53.364;-1.480;2023-02-04T13:32:22;10.50;99.90
21259;DHT22;10787;53.364;-1.480;2023-02-04T13:34:48;10.50;99.90
21259;DHT22;10787;53.364;-1.480;2023-02-04T13:37:14;10.50;99.90
21259;DHT22;10787;53.364;-1.480;2023-02-04T13:39:39;10.40;99.90
21259;DHT22;10787;53.364;-1.480;2023-02-04T13:42:05;10.40;99.90
21259;DHT22;10787;53.364;-1.480;2023-02-04T13:44:31;10.40;99.90
21259;DHT22;10787;53.364;-1.480;2023-02-04T13:46:57;10.40;99.90
21259;DHT22;10787;53.364;-1.480;2023-02-04T13:49:22;10.30;99.90
21259;DHT22;10787;53.364;-1.480;2023-02-04T13:51:48;10.20;99.90
21259;DHT22;10787;53.364;-1.480;2023-02-04T13:54:14;10.20;99.90
21259;DHT22;10787;53.364;-1.480;2023-02-04T13:56:40;10.20;99.90
21259;DHT22;10787;53.364;-1.480;2023-02-04T13:59:06;10.20;99.90
21259;DHT22;10787;53.364;-1.480;2023-02-04T14:01:31;10.20;99.90
21259;DHT22;10787;53.364;-1.480;2023-02-04T14:03:57;10.20;99.90
21259;DHT22;10787;53.364;-1.480;2023-02-04T14:06:23;10.20;99.90
21259;DHT22;10787;53.364;-1.480;2023-02-04T14:08:58;10.10;99.90
21259;DHT22;10787;53.364;-1.480;2023-02-04T14:11:24;10.10;99.90
21259;DHT22;10787;53.364;-1.480;2023-02-04T14:13:50;10.00;99.90
21259;DHT22;10787;53.364;-1.480;2023-02-04T14:16:16;10.00;99.90
21259;DHT22;10787;53.364;-1.480;2023-02-04T14:18:41;9.90;99.90
21259;DHT22;10787;53.364;-1.480;2023-02-04T14:21:07;9.90;99.90
21259;DHT22;10787;53.364;-1.480;2023-02-04T14:23:33;10.00;99.90
21259;DHT22;10787;53.364;-1.480;2023-02-04T14:25:59;10.00;99.90
21259;DHT22;10787;53.364;-1.480;2023-02-04T14:28:24;10.00;99.90
21259;DHT22;10787;53.364;-1.480;2023-02-04T14:30:50;10.00;99.90
21259;DHT22;10787;53.364;-1.480;2023-02-04T14:33:16;9.90;99.90
21259;DHT22;10787;53.364;-1.480;2023-02-04T14:35:43;9.90;99.90
21259;DHT22;10787;53.364;-1.480;2023-02-04T14:38:08;9.90;99.90
21259;DHT22;10787;53.364;-1.480;2023-02-04T14:40:35;9.90;99.90
21259;DHT22;10787;53.364;-1.480;2023-02-04T14:43:01;9.90;99.90
21259;DHT22;10787;53.364;-1.480;2023-02-04T14:45:27;9.90;99.90
21259;DHT22;10787;53.364;-1.480;2023-02-04T14:47:53;9.90;99.90
21259;DHT22;10787;53.364;-1.480;2023-02-04T14:50:22;9.90;99.90
21259;DHT22;10787;53.364;-1.480;2023-02-04T14:52:52;9.90;99.90
21259;DHT22;10787;53.364;-1.480;2023-02-04T14:55:18;9.90;99.90
21259;DHT22;10787;53.364;-1.480;2023-02-04T14:57:44;9.90;99.90
21259;DHT22;10787;53.364;-1.480;2023-02-04T15:00:10;9.90;99.90
21259;DHT22;10787;53.364;-1.480;2023-02-04T15:02:36;9.90;99.90
21259;DHT22;10787;53.364;-1.480;2023-02-04T15:05:02;9.90;99.90
21259;DHT22;10787;53.364;-1.480;2023-02-04T15:07:28;9.90;99.90
21259;DHT22;10787;53.364;-1.480;2023-02-04T15:09:54;9.90;99.90
21259;DHT22;10787;53.364;-1.480;2023-02-04T15:12:19;9.80;99.90
21259;DHT22;10787;53.364;-1.480;2023-02-04T15:14:45;9.90;99.90
21259;DHT22;10787;53.364;-1.480;2023-02-04T15:17:11;9.90;99.90
21259;DHT22;10787;53.364;-1.480;2023-02-04T15:19:37;9.90;99.90
21259;DHT22;10787;53.364;-1.480;2023-02-04T15:22:03;9.80;99.90
21259;DHT22;10787;53.364;-1.480;2023-02-04T15:24:29;9.80;99.90
21259;DHT22;10787;53.364;-1.480;2023-02-04T15:26:56;9.80;99.90
21259;DHT22;10787;53.364;-1.480;2023-02-04T15:29:21;9.80;99.90
21259;DHT22;10787;53.364;-1.480;2023-02-04T15:31:47;9.80;99.90
21259;DHT22;10787;53.364;-1.480;2023-02-04T15:34:13;9.70;99.90
21259;DHT22;10787;53.364;-1.480;2023-02-04T15:36:39;9.70;99.90
21259;DHT22;10787;53.364;-1.480;2023-02-04T15:39:05;9.70;99.90
21259;DHT22;10787;53.364;-1.480;2023-02-04T15:41:30;9.60;99.90
21259;DHT22;10787;53.364;-1.480;2023-02-04T15:43:56;9.60;99.90
21259;DHT22;10787;53.364;-1.480;2023-02-04T15:46:22;9.60;99.90